Aviation Digital Data Service (ADDS)

Output produced by METARs form (1941 UTC 25 March 2017)
found at http://www.aviationweather.gov/adds/metars/
 
SUCA 251900Z 12008 9999 FEW026 FEW033CB 25/20 Q1013
SUCA 251735Z 2518/2618 05015KT 9999 FEW020 TX28/2618Z TN19/2610Z 
     TEMPO 2602/2606 3000 BR SCT010 
     PROB40 
     TEMPO 2606/2610 0800 BCFG SCT005
       
SUDU 251900Z 08008KT 9999 SCT033 27/16 Q1014
SUDU 251735Z 2518/2618 05015KT 9999 FEW020 TX28/2618Z TN19/2610Z 
     TEMPO 2602/2606 3000 BR SCT010 
     PROB40 
     TEMPO 2606/2610 0800 BCFG SCT005
       
SUMU 251900Z 12012KT CAVOK 25/20 Q1016 NOSIG
SUMU 251735Z 2518/2618 05015KT 9999 FEW020 TX28/2618Z TN19/2610Z 
     TEMPO 2602/2606 3000 BR SCT010 
     PROB40 
     TEMPO 2606/2610 0800 BCFG SCT005
       
SUAA 251900Z 12010KT 9999 FEW030 26/18 Q1016
SUAA 251735Z 2518/2618 05015KT 9999 FEW020 TX28/2618Z TN19/2610Z 
     TEMPO 2602/2606 3000 BR SCT010 
     PROB40 
     TEMPO 2606/2610 0800 BCFG SCT005
       
SULS 251900Z 10016KT 9999 SCT026 26/20 Q1016
SULS 251735Z 2518/2618 05015KT 9999 FEW020 TX28/2618Z TN19/2610Z 
     TEMPO 2602/2606 3000 BR SCT010 
     PROB40 
     TEMPO 2606/2610 0800 BCFG SCT005
       
SURV 251735Z 2518/2618 04010KT 9999 SCT025 TX30/2618Z TN20/2610Z 
     TEMPO 2602/2606 3000 BR SCT010 
     PROB40 
     TEMPO 2606/2610 0800 BCFG SCT005
       
SUSO 251900Z 12008KT 9999 BKN020 BKN200 29/19 Q1012
SUSO 251735Z 2518/2618 04010KT 9999 SCT025 TX30/2618Z TN20/2610Z 
     TEMPO 2602/2606 3000 BR SCT010 
     PROB40 
     TEMPO 2606/2610 0800 BCFG SCT005